createdAt,value
2023-04-11T00:02:20.298Z,88.86
2023-04-11T00:06:23.950Z,91.74
2023-04-11T00:10:27.251Z,92.09
2023-04-11T00:14:32.577Z,94.64
2023-04-11T00:18:39.829Z,94.96
2023-04-11T00:22:43.861Z,96.00
2023-04-11T00:26:46.902Z,94.73
2023-04-11T00:30:49.972Z,91.22
2023-04-11T00:34:55.511Z,91.55
2023-04-11T00:38:58.771Z,92.43
2023-04-11T00:43:01.691Z,91.88
2023-04-11T00:47:07.272Z,94.15
2023-04-11T00:51:12.109Z,92.67
2023-04-11T00:55:15.725Z,91.22
2023-04-11T00:59:18.686Z,92.47
2023-04-11T01:03:22.159Z,92.31
2023-04-11T01:07:27.516Z,93.25
2023-04-11T01:11:31.084Z,93.36
2023-04-11T01:15:34.078Z,92.75
2023-04-11T01:19:36.822Z,93.84
2023-04-11T01:23:41.255Z,95.51
2023-04-11T01:27:44.997Z,93.00
2023-04-11T01:31:47.647Z,94.29
2023-04-11T01:35:51.021Z,95.52
2023-04-11T01:39:55.395Z,96.72
2023-04-11T01:43:58.602Z,95.98
2023-04-11T01:48:01.609Z,94.55
2023-04-11T01:52:04.861Z,96.25
2023-04-11T01:56:11.289Z,95.64
2023-04-11T02:00:15.263Z,95.77
2023-04-11T02:04:18.484Z,95.40
2023-04-11T02:08:21.731Z,93.91
2023-04-11T02:12:26.223Z,94.50
2023-04-11T02:16:30.220Z,94.29
2023-04-11T02:20:33.260Z,94.32
2023-04-11T02:24:36.642Z,93.35
2023-04-11T02:28:40.918Z,92.72
2023-04-11T02:32:43.714Z,94.31
2023-04-11T02:36:46.919Z,92.56
2023-04-11T02:40:50.013Z,92.48
2023-04-11T02:44:56.600Z,92.99
2023-04-11T02:48:59.551Z,92.88
2023-04-11T02:53:02.379Z,93.42
2023-04-11T02:57:05.587Z,93.45
2023-04-11T03:01:11.977Z,93.60
2023-04-11T03:05:16.529Z,92.94
2023-04-11T03:09:19.331Z,93.17
2023-04-11T03:13:22.333Z,93.38
2023-04-11T03:17:26.625Z,94.46
2023-04-11T03:21:29.601Z,94.66
2023-04-11T03:25:32.565Z,93.73
2023-04-11T03:29:35.486Z,94.19
2023-04-11T03:33:39.890Z,93.43
2023-04-11T03:37:42.893Z,93.89
2023-04-11T03:41:45.721Z,95.04
2023-04-11T03:45:48.707Z,93.75
2023-04-11T03:49:53.270Z,95.71
2023-04-11T03:53:56.244Z,92.52
2023-04-11T03:57:59.670Z,93.96
2023-04-11T04:02:02.774Z,93.67
2023-04-11T04:06:08.117Z,93.61
2023-04-11T04:10:11.217Z,92.54
2023-04-11T04:14:14.620Z,93.88
2023-04-11T04:18:17.702Z,95.71
2023-04-11T04:22:22.374Z,95.37
2023-04-11T04:26:25.960Z,94.56
2023-04-11T04:30:29.694Z,94.27
2023-04-11T04:34:32.576Z,95.19
2023-04-11T04:38:38.491Z,95.81
2023-04-11T04:42:43.238Z,95.32
2023-04-11T04:46:46.090Z,96.63
2023-04-11T04:50:49.134Z,95.34
2023-04-11T04:54:53.823Z,95.24
2023-04-11T04:58:56.915Z,94.86
2023-04-11T05:02:59.873Z,94.34
2023-04-11T05:07:02.899Z,94.96
2023-04-11T05:11:07.261Z,95.18
2023-04-11T05:15:11.803Z,94.32
2023-04-11T05:19:14.782Z,94.05
2023-04-11T05:23:17.685Z,92.73
2023-04-11T05:27:22.003Z,94.38
2023-04-11T05:31:25.734Z,94.37
2023-04-11T05:35:28.521Z,95.07
2023-04-11T05:39:31.400Z,95.55
2023-04-11T05:43:35.673Z,94.88
2023-04-11T05:47:38.886Z,94.34
2023-04-11T05:51:41.709Z,94.09
2023-04-11T05:55:44.525Z,94.34
2023-04-11T05:59:57.349Z,93.40
2023-04-11T06:04:00.523Z,92.32
2023-04-11T06:08:04.560Z,87.32
2023-04-11T06:12:08.144Z,89.88
2023-04-11T06:16:19.118Z,91.74
2023-04-11T06:20:29.827Z,93.08
2023-04-11T06:24:36.758Z,92.44
2023-04-11T06:28:39.708Z,91.71
2023-04-11T06:32:47.169Z,91.88
2023-04-11T06:36:51.072Z,89.39
2023-04-11T06:40:54.665Z,91.50
2023-04-11T06:44:57.405Z,86.86
2023-04-11T06:49:03.436Z,87.20
2023-04-11T06:53:06.349Z,89.29
2023-04-11T06:57:10.575Z,88.29
2023-04-11T07:01:14.692Z,87.78
2023-04-11T07:05:19.489Z,88.83
2023-04-11T07:09:23.050Z,84.37
2023-04-11T07:13:25.970Z,81.45
2023-04-11T07:17:29.059Z,81.23
2023-04-11T07:21:33.445Z,79.06
2023-04-11T07:25:37.088Z,81.38
2023-04-11T07:29:41.147Z,82.54
2023-04-11T07:33:44.528Z,81.87
2023-04-11T07:37:48.948Z,83.30
2023-04-11T07:41:52.422Z,83.03
2023-04-11T07:45:57.000Z,83.76
2023-04-11T07:49:59.902Z,83.69
2023-04-11T07:54:04.259Z,78.88
2023-04-11T07:58:07.237Z,77.36
2023-04-11T08:02:10.154Z,76.54
2023-04-11T08:06:13.692Z,78.80
2023-04-11T08:10:17.862Z,77.62
2023-04-11T08:14:20.768Z,75.78
2023-04-11T08:18:24.356Z,78.98
2023-04-11T08:22:27.898Z,76.01
2023-04-11T08:26:32.152Z,76.08
2023-04-11T08:30:35.471Z,72.12
2023-04-11T08:34:38.725Z,73.17
2023-04-11T08:38:41.773Z,75.14
2023-04-11T08:42:45.835Z,76.56
2023-04-11T08:46:48.931Z,75.83
2023-04-11T08:50:51.657Z,81.17
2023-04-11T08:54:55.885Z,81.23
2023-04-11T08:59:00.150Z,78.81
2023-04-11T09:03:04.236Z,74.14
2023-04-11T09:07:07.210Z,72.26
2023-04-11T09:11:09.913Z,68.51
2023-04-11T09:15:21.090Z,70.38
2023-04-11T09:19:27.715Z,67.19
2023-04-11T09:23:30.594Z,65.72
2023-04-11T09:27:33.296Z,64.69
2023-04-11T09:31:45.273Z,66.15
2023-04-11T09:35:48.821Z,69.31
2023-04-11T09:39:59.538Z,64.88
2023-04-11T09:44:02.598Z,62.34
2023-04-11T09:48:07.305Z,60.77
2023-04-11T09:52:10.064Z,58.64
2023-04-11T09:56:13.286Z,62.39
2023-04-11T10:00:18.561Z,60.49
2023-04-11T10:04:22.884Z,59.72
2023-04-11T10:08:30.522Z,62.14
2023-04-11T10:12:33.959Z,62.18
2023-04-11T10:16:37.897Z,61.76
2023-04-11T10:20:47.372Z,59.90
2023-04-11T10:25:16.970Z,59.08
2023-04-11T10:29:50.718Z,60.69
2023-04-11T10:34:15.077Z,58.37
2023-04-11T10:38:51.036Z,58.57
2023-04-11T10:42:54.009Z,58.75
2023-04-11T10:46:57.167Z,57.22
2023-04-11T10:50:59.968Z,57.81
2023-04-11T10:55:17.147Z,55.61
2023-04-11T10:59:53.195Z,56.94
2023-04-11T11:03:59.712Z,59.35
2023-04-11T11:08:03.002Z,57.68
2023-04-11T11:12:08.568Z,54.46
2023-04-11T11:16:15.909Z,52.33
2023-04-11T11:20:20.340Z,54.00
2023-04-11T11:24:26.211Z,51.48
2023-04-11T11:28:31.106Z,50.46
2023-04-11T11:32:34.426Z,51.62
2023-04-11T11:36:41.320Z,49.56
2023-04-11T11:40:44.329Z,50.91
2023-04-11T11:44:48.683Z,54.16
2023-04-11T11:49:00.030Z,54.74
2023-04-11T11:53:14.335Z,54.95
2023-04-11T11:57:22.699Z,56.84
2023-04-11T12:01:27.008Z,55.63
2023-04-11T12:05:32.653Z,50.43
2023-04-11T12:09:36.187Z,56.84
2023-04-11T12:13:39.125Z,48.50
2023-04-11T12:17:43.653Z,49.72
2023-04-11T12:21:46.515Z,48.29
2023-04-11T12:25:49.368Z,50.71
2023-04-11T12:29:52.136Z,46.69
2023-04-11T12:33:57.441Z,46.07
2023-04-11T12:38:00.661Z,49.43
2023-04-11T12:42:03.489Z,48.55
2023-04-11T12:46:07.762Z,47.01
2023-04-11T12:50:12.591Z,47.75
2023-04-11T12:54:15.749Z,48.46
2023-04-11T12:58:18.557Z,44.37
2023-04-11T13:02:21.817Z,44.43
2023-04-11T13:06:26.330Z,45.30
2023-04-11T13:10:29.144Z,46.18
2023-04-11T13:14:32.495Z,44.19
2023-04-11T13:18:35.018Z,43.85
2023-04-11T13:22:39.829Z,44.58
2023-04-11T13:26:44.854Z,40.67
2023-04-11T13:30:47.694Z,43.92
2023-04-11T13:34:51.890Z,42.46
2023-04-11T13:38:57.382Z,43.03
2023-04-11T13:43:01.260Z,43.02
2023-04-11T13:47:04.498Z,44.23
2023-04-11T13:51:07.727Z,44.17
2023-04-11T13:55:12.096Z,43.90
2023-04-11T13:59:15.140Z,46.80
2023-04-11T14:03:18.158Z,44.08
2023-04-11T14:07:21.121Z,43.15
2023-04-11T14:11:25.808Z,42.65
2023-04-11T14:15:28.662Z,43.63
2023-04-11T14:19:31.435Z,44.73
2023-04-11T14:23:34.501Z,42.51
2023-04-11T14:27:39.061Z,44.14
2023-04-11T14:31:42.297Z,42.84
2023-04-11T14:35:47.426Z,45.63
2023-04-11T14:39:50.391Z,47.52
2023-04-11T14:43:54.868Z,48.29
2023-04-11T14:47:58.061Z,47.01
2023-04-11T14:52:01.277Z,45.78
2023-04-11T14:56:06.153Z,47.11
2023-04-11T15:00:18.110Z,44.62
2023-04-11T15:04:21.094Z,48.04
2023-04-11T15:08:23.944Z,46.81
2023-04-11T15:12:26.779Z,46.10
2023-04-11T15:16:31.212Z,46.84
2023-04-11T15:20:34.055Z,48.12
2023-04-11T15:24:36.883Z,47.19
2023-04-11T15:28:40.477Z,47.60
2023-04-11T15:32:44.886Z,45.93
2023-04-11T15:36:47.610Z,51.58
2023-04-11T15:40:51.399Z,49.66
2023-04-11T15:44:54.862Z,49.32
2023-04-11T15:48:58.745Z,51.91
2023-04-11T15:53:01.425Z,51.47
2023-04-11T15:57:04.651Z,50.64
2023-04-11T16:01:08.316Z,52.67
2023-04-11T16:05:12.658Z,51.72
2023-04-11T16:09:15.700Z,52.54
2023-04-11T16:13:18.494Z,52.01
2023-04-11T16:17:21.724Z,54.30
2023-04-11T16:21:26.296Z,56.78
2023-04-11T16:25:29.160Z,55.29
2023-04-11T16:29:31.898Z,58.98
2023-04-11T16:33:34.607Z,58.94
2023-04-11T16:37:38.595Z,57.38
2023-04-11T16:41:41.479Z,58.03
2023-04-11T16:45:44.700Z,58.25
2023-04-11T16:49:47.608Z,59.60
2023-04-11T16:53:53.224Z,58.30
2023-04-11T16:57:56.014Z,61.18
2023-04-11T17:01:58.896Z,59.93
2023-04-11T17:06:01.827Z,60.42
2023-04-11T17:10:07.143Z,63.30
2023-04-11T17:14:10.839Z,65.73
2023-04-11T17:18:13.735Z,68.02
2023-04-11T17:22:16.631Z,70.79
2023-04-11T17:26:21.006Z,72.04
2023-04-11T17:30:23.917Z,71.75
2023-04-11T17:34:27.357Z,71.38
2023-04-11T17:38:30.029Z,73.50
2023-04-11T17:42:34.183Z,74.26
2023-04-11T17:46:37.269Z,72.14
2023-04-11T17:50:40.091Z,73.44
2023-04-11T17:54:43.046Z,71.18
2023-04-11T17:58:48.124Z,72.77
2023-04-11T18:02:52.668Z,74.37
2023-04-11T18:06:56.060Z,74.81
2023-04-11T18:10:59.277Z,75.40
2023-04-11T18:15:03.884Z,73.73
2023-04-11T18:19:06.748Z,77.31
2023-04-11T18:23:09.555Z,77.37
2023-04-11T18:27:12.467Z,77.08
2023-04-11T18:31:16.886Z,80.56
2023-04-11T18:35:20.016Z,79.00
2023-04-11T18:39:23.592Z,79.09
2023-04-11T18:43:26.321Z,80.12
2023-04-11T18:47:30.872Z,79.80
2023-04-11T18:51:35.539Z,80.73
2023-04-11T18:55:39.626Z,78.44
2023-04-11T18:59:44.476Z,82.07
2023-04-11T19:03:49.441Z,81.86
2023-04-11T19:07:52.893Z,79.42
2023-04-11T19:11:55.842Z,79.20
2023-04-11T19:15:58.597Z,78.40
2023-04-11T19:20:06.523Z,78.00
2023-04-11T19:24:09.738Z,78.11
2023-04-11T19:28:12.592Z,81.13
2023-04-11T19:32:17.643Z,81.64
2023-04-11T19:36:22.413Z,82.19
2023-04-11T19:40:25.096Z,81.45
2023-04-11T19:44:30.609Z,80.27
2023-04-11T19:48:33.662Z,82.83
2023-04-11T19:52:37.881Z,84.71
2023-04-11T19:56:44.354Z,81.63
2023-04-11T20:00:47.393Z,83.68
2023-04-11T20:04:50.606Z,83.42
2023-04-11T20:08:54.796Z,82.28
2023-04-11T20:12:57.676Z,80.35
2023-04-11T20:17:00.884Z,81.81
2023-04-11T20:21:06.293Z,84.14
2023-04-11T20:25:11.837Z,85.52
2023-04-11T20:29:17.966Z,80.59
2023-04-11T20:33:20.967Z,82.81
2023-04-11T20:37:23.944Z,81.44
2023-04-11T20:41:28.292Z,87.31
2023-04-11T20:45:33.108Z,81.90
2023-04-11T20:49:36.223Z,83.36
2023-04-11T20:53:39.092Z,82.13
2023-04-11T20:57:44.663Z,80.46
2023-04-11T21:01:48.549Z,83.40
2023-04-11T21:05:51.482Z,82.42
2023-04-11T21:09:56.366Z,85.86
2023-04-11T21:14:00.773Z,87.54
2023-04-11T21:18:06.831Z,85.52
2023-04-11T21:22:10.535Z,82.44
2023-04-11T21:26:13.414Z,81.21
2023-04-11T21:30:17.897Z,85.92
2023-04-11T21:34:21.104Z,86.80
2023-04-11T21:38:24.142Z,90.86
2023-04-11T21:42:27.212Z,88.91
2023-04-11T21:46:32.199Z,88.06
2023-04-11T21:50:35.571Z,88.43
2023-04-11T21:54:38.838Z,89.60
2023-04-11T21:58:42.047Z,88.77
2023-04-11T22:02:46.625Z,87.41
2023-04-11T22:06:49.578Z,90.33
2023-04-11T22:10:54.314Z,93.08
2023-04-11T22:14:57.420Z,87.18
2023-04-11T22:19:02.519Z,92.66
2023-04-11T22:23:06.461Z,91.19
2023-04-11T22:27:10.395Z,90.66
2023-04-11T22:31:14.291Z,90.78
2023-04-11T22:35:18.881Z,92.75
2023-04-11T22:39:22.499Z,91.08
2023-04-11T22:43:25.791Z,92.52
2023-04-11T22:47:28.691Z,94.23
2023-04-11T22:51:33.511Z,95.53
2023-04-11T22:55:40.061Z,96.28
2023-04-11T22:59:43.169Z,94.98
2023-04-11T23:03:46.071Z,93.06
2023-04-11T23:07:50.730Z,94.46
2023-04-11T23:11:53.668Z,95.29
2023-04-11T23:15:57.234Z,96.53
2023-04-11T23:20:01.884Z,94.84
2023-04-11T23:24:07.065Z,94.50
2023-04-11T23:28:10.027Z,95.21
2023-04-11T23:32:12.734Z,93.95
2023-04-11T23:36:16.767Z,95.35
2023-04-11T23:40:21.464Z,97.35
2023-04-11T23:44:24.316Z,94.31
2023-04-11T23:48:27.389Z,91.64
2023-04-11T23:52:31.209Z,93.62
2023-04-11T23:56:35.411Z,91.88
